sensor_id;sensor_type;location;lat;lon;timestamp;temperature;humidity
17740;DHT22;8990;33.226;-97.150;2023-02-18T00:01:20;9.30;99.90
17740;DHT22;8990;33.226;-97.150;2023-02-18T00:03:49;9.20;99.90
17740;DHT22;8990;33.226;-97.150;2023-02-18T00:06:20;9.20;99.90
17740;DHT22;8990;33.226;-97.150;2023-02-18T00:08:50;9.20;99.90
17740;DHT22;8990;33.226;-97.150;2023-02-18T00:11:20;9.10;99.90
17740;DHT22;8990;33.226;-97.150;2023-02-18T00:13:51;8.90;99.90
17740;DHT22;8990;33.226;-97.150;2023-02-18T00:16:24;8.90;99.90
17740;DHT22;8990;33.226;-97.150;2023-02-18T00:18:55;8.80;99.90
17740;DHT22;8990;33.226;-97.150;2023-02-18T00:21:26;8.70;99.90
17740;DHT22;8990;33.226;-97.150;2023-02-18T00:23:55;8.70;99.90
17740;DHT22;8990;33.226;-97.150;2023-02-18T00:26:25;8.70;99.90
17740;DHT22;8990;33.226;-97.150;2023-02-18T00:28:55;8.60;99.90
17740;DHT22;8990;33.226;-97.150;2023-02-18T00:31:29;8.50;99.90
17740;DHT22;8990;33.226;-97.150;2023-02-18T00:34:02;8.50;99.90
17740;DHT22;8990;33.226;-97.150;2023-02-18T00:36:34;8.30;99.90
17740;DHT22;8990;33.226;-97.150;2023-02-18T00:39:05;8.30;99.90
17740;DHT22;8990;33.226;-97.150;2023-02-18T00:41:35;8.10;99.90
17740;DHT22;8990;33.226;-97.150;2023-02-18T00:44:04;8.00;99.90
17740;DHT22;8990;33.226;-97.150;2023-02-18T00:46:36;7.90;99.90
17740;DHT22;8990;33.226;-97.150;2023-02-18T00:49:06;7.70;99.90
17740;DHT22;8990;33.226;-97.150;2023-02-18T00:51:35;7.60;99.90
17740;DHT22;8990;33.226;-97.150;2023-02-18T00:54:07;7.50;99.90
17740;DHT22;8990;33.226;-97.150;2023-02-18T00:56:37;7.40;99.90
17740;DHT22;8990;33.226;-97.150;2023-02-18T00:59:06;7.20;99.90
17740;DHT22;8990;33.226;-97.150;2023-02-18T01:01:38;7.10;99.90
17740;DHT22;8990;33.226;-97.150;2023-02-18T01:04:08;7.10;99.90
17740;DHT22;8990;33.226;-97.150;2023-02-18T01:06:37;7.10;99.90
17740;DHT22;8990;33.226;-97.150;2023-02-18T01:09:06;6.90;99.90
17740;DHT22;8990;33.226;-97.150;2023-02-18T01:11:37;6.90;99.90
17740;DHT22;8990;33.226;-97.150;2023-02-18T01:14:06;6.80;99.90
17740;DHT22;8990;33.226;-97.150;2023-02-18T01:16:38;6.70;99.90
17740;DHT22;8990;33.226;-97.150;2023-02-18T01:19:08;6.60;99.90
17740;DHT22;8990;33.226;-97.150;2023-02-18T01:21:38;6.40;99.90
17740;DHT22;8990;33.226;-97.150;2023-02-18T01:24:08;6.30;99.90
17740;DHT22;8990;33.226;-97.150;2023-02-18T01:26:38;6.40;99.90
17740;DHT22;8990;33.226;-97.150;2023-02-18T01:29:08;6.30;99.90
17740;DHT22;8990;33.226;-97.150;2023-02-18T01:31:40;6.30;99.90
17740;DHT22;8990;33.226;-97.150;2023-02-18T01:34:10;6.20;99.90
17740;DHT22;8990;33.226;-97.150;2023-02-18T01:36:39;6.10;99.90
17740;DHT22;8990;33.226;-97.150;2023-02-18T01:39:09;6.00;99.90
17740;DHT22;8990;33.226;-97.150;2023-02-18T01:41:39;6.00;99.90
17740;DHT22;8990;33.226;-97.150;2023-02-18T01:44:13;5.90;99.90
17740;DHT22;8990;33.226;-97.150;2023-02-18T01:46:47;5.70;99.90
17740;DHT22;8990;33.226;-97.150;2023-02-18T01:49:19;5.60;99.90
17740;DHT22;8990;33.226;-97.150;2023-02-18T01:51:52;5.70;99.90
17740;DHT22;8990;33.226;-97.150;2023-02-18T01:54:26;5.60;99.90
17740;DHT22;8990;33.226;-97.150;2023-02-18T01:57:00;5.50;99.90
17740;DHT22;8990;33.226;-97.150;2023-02-18T01:59:37;5.40;99.90
17740;DHT22;8990;33.226;-97.150;2023-02-18T02:02:12;5.50;99.90
17740;DHT22;8990;33.226;-97.150;2023-02-18T02:04:42;5.50;99.90
17740;DHT22;8990;33.226;-97.150;2023-02-18T02:07:13;5.40;99.90
17740;DHT22;8990;33.226;-97.150;2023-02-18T02:09:43;5.20;99.90
17740;DHT22;8990;33.226;-97.150;2023-02-18T02:12:38;5.20;99.90
17740;DHT22;8990;33.226;-97.150;2023-02-18T02:15:26;5.10;99.90
17740;DHT22;8990;33.226;-97.150;2023-02-18T02:18:13;5.10;99.90
17740;DHT22;8990;33.226;-97.150;2023-02-18T02:21:25;5.10;99.90
17740;DHT22;8990;33.226;-97.150;2023-02-18T02:24:22;5.10;99.90
17740;DHT22;8990;33.226;-97.150;2023-02-18T02:27:07;5.00;99.90
17740;DHT22;8990;33.226;-97.150;2023-02-18T02:30:16;5.00;99.90
17740;DHT22;8990;33.226;-97.150;2023-02-18T02:36:03;4.90;99.90
17740;DHT22;8990;33.226;-97.150;2023-02-18T02:38:38;4.90;99.90
17740;DHT22;8990;33.226;-97.150;2023-02-18T02:41:16;4.80;99.90
17740;DHT22;8990;33.226;-97.150;2023-02-18T02:43:52;4.90;99.90
17740;DHT22;8990;33.226;-97.150;2023-02-18T02:46:29;4.70;99.90
17740;DHT22;8990;33.226;-97.150;2023-02-18T02:49:09;4.70;99.90
17740;DHT22;8990;33.226;-97.150;2023-02-18T02:51:48;4.60;99.90
17740;DHT22;8990;33.226;-97.150;2023-02-18T02:54:23;4.40;99.90
17740;DHT22;8990;33.226;-97.150;2023-02-18T02:57:08;4.60;99.90
17740;DHT22;8990;33.226;-97.150;2023-02-18T02:59:52;4.60;99.90
17740;DHT22;8990;33.226;-97.150;2023-02-18T03:02:30;4.70;99.90
17740;DHT22;8990;33.226;-97.150;2023-02-18T03:05:18;4.50;99.90
17740;DHT22;8990;33.226;-97.150;2023-02-18T03:08:21;4.50;99.90
17740;DHT22;8990;33.226;-97.150;2023-02-18T03:10:57;4.50;99.90
17740;DHT22;8990;33.226;-97.150;2023-02-18T03:13:43;4.60;99.90
17740;DHT22;8990;33.226;-97.150;2023-02-18T03:16:23;4.40;99.90
17740;DHT22;8990;33.226;-97.150;2023-02-18T03:19:00;4.40;99.90
17740;DHT22;8990;33.226;-97.150;2023-02-18T03:21:36;4.30;99.90
17740;DHT22;8990;33.226;-97.150;2023-02-18T03:24:12;4.30;99.90
17740;DHT22;8990;33.226;-97.150;2023-02-18T03:26:47;4.30;99.90
17740;DHT22;8990;33.226;-97.150;2023-02-18T03:29:19;4.30;99.90
17740;DHT22;8990;33.226;-97.150;2023-02-18T03:31:54;4.30;99.90
17740;DHT22;8990;33.226;-97.150;2023-02-18T03:34:27;4.20;99.90
17740;DHT22;8990;33.226;-97.150;2023-02-18T03:36:59;4.30;99.90
17740;DHT22;8990;33.226;-97.150;2023-02-18T03:39:33;4.20;99.90
17740;DHT22;8990;33.226;-97.150;2023-02-18T03:42:04;4.10;99.90
17740;DHT22;8990;33.226;-97.150;2023-02-18T03:44:33;4.00;99.90
17740;DHT22;8990;33.226;-97.150;2023-02-18T03:47:02;4.10;99.90
17740;DHT22;8990;33.226;-97.150;2023-02-18T03:49:31;4.00;99.90
17740;DHT22;8990;33.226;-97.150;2023-02-18T03:52:02;4.00;99.90
17740;DHT22;8990;33.226;-97.150;2023-02-18T03:54:34;4.00;99.90
17740;DHT22;8990;33.226;-97.150;2023-02-18T03:57:03;4.00;99.90
17740;DHT22;8990;33.226;-97.150;2023-02-18T03:59:33;3.90;99.90
17740;DHT22;8990;33.226;-97.150;2023-02-18T04:02:02;3.80;99.90
17740;DHT22;8990;33.226;-97.150;2023-02-18T04:04:32;3.80;99.90
17740;DHT22;8990;33.226;-97.150;2023-02-18T04:07:01;3.80;99.90
17740;DHT22;8990;33.226;-97.150;2023-02-18T04:09:33;3.70;99.90
17740;DHT22;8990;33.226;-97.150;2023-02-18T04:12:03;3.60;99.90
17740;DHT22;8990;33.226;-97.150;2023-02-18T04:14:34;3.70;99.90
17740;DHT22;8990;33.226;-97.150;2023-02-18T04:17:03;3.60;99.90
17740;DHT22;8990;33.226;-97.150;2023-02-18T04:19:32;3.70;99.90
17740;DHT22;8990;33.226;-97.150;2023-02-18T04:22:01;3.60;99.90
17740;DHT22;8990;33.226;-97.150;2023-02-18T04:24:31;3.60;99.90
17740;DHT22;8990;33.226;-97.150;2023-02-18T04:27:03;3.60;99.90
17740;DHT22;8990;33.226;-97.150;2023-02-18T04:29:36;3.60;99.90
17740;DHT22;8990;33.226;-97.150;2023-02-18T04:32:05;3.60;99.90
17740;DHT22;8990;33.226;-97.150;2023-02-18T04:34:34;3.60;99.90
17740;DHT22;8990;33.226;-97.150;2023-02-18T04:37:03;3.60;99.90
17740;DHT22;8990;33.226;-97.150;2023-02-18T04:39:32;3.60;99.90
17740;DHT22;8990;33.226;-97.150;2023-02-18T04:42:04;3.60;99.90
17740;DHT22;8990;33.226;-97.150;2023-02-18T04:44:36;3.60;99.90
17740;DHT22;8990;33.226;-97.150;2023-02-18T04:47:07;3.60;99.90
17740;DHT22;8990;33.226;-97.150;2023-02-18T04:49:36;3.60;99.90
17740;DHT22;8990;33.226;-97.150;2023-02-18T04:52:06;3.60;99.90
17740;DHT22;8990;33.226;-97.150;2023-02-18T04:54:37;3.50;99.90
17740;DHT22;8990;33.226;-97.150;2023-02-18T04:57:08;3.50;99.90
17740;DHT22;8990;33.226;-97.150;2023-02-18T04:59:38;3.40;99.90
17740;DHT22;8990;33.226;-97.150;2023-02-18T05:02:07;3.40;99.90
17740;DHT22;8990;33.226;-97.150;2023-02-18T05:04:36;3.50;99.90
17740;DHT22;8990;33.226;-97.150;2023-02-18T05:07:05;3.50;99.90
17740;DHT22;8990;33.226;-97.150;2023-02-18T05:09:34;3.40;99.90
17740;DHT22;8990;33.226;-97.150;2023-02-18T05:12:07;3.30;99.90
17740;DHT22;8990;33.226;-97.150;2023-02-18T05:14:37;3.30;99.90
17740;DHT22;8990;33.226;-97.150;2023-02-18T05:17:06;3.30;99.90
17740;DHT22;8990;33.226;-97.150;2023-02-18T05:19:36;3.30;99.90
17740;DHT22;8990;33.226;-97.150;2023-02-18T05:22:05;3.30;99.90
17740;DHT22;8990;33.226;-97.150;2023-02-18T05:24:35;3.20;99.90
17740;DHT22;8990;33.226;-97.150;2023-02-18T05:27:04;3.20;99.90
17740;DHT22;8990;33.226;-97.150;2023-02-18T05:29:36;3.30;99.90
17740;DHT22;8990;33.226;-97.150;2023-02-18T05:32:06;3.30;99.90
17740;DHT22;8990;33.226;-97.150;2023-02-18T05:34:36;3.10;99.90
17740;DHT22;8990;33.226;-97.150;2023-02-18T05:37:08;3.10;99.90
17740;DHT22;8990;33.226;-97.150;2023-02-18T05:39:39;3.00;99.90
17740;DHT22;8990;33.226;-97.150;2023-02-18T05:42:10;3.00;99.90
17740;DHT22;8990;33.226;-97.150;2023-02-18T05:44:40;3.00;99.90
17740;DHT22;8990;33.226;-97.150;2023-02-18T05:47:11;3.00;99.90
17740;DHT22;8990;33.226;-97.150;2023-02-18T05:49:41;3.00;99.90
17740;DHT22;8990;33.226;-97.150;2023-02-18T05:52:11;2.90;99.90
17740;DHT22;8990;33.226;-97.150;2023-02-18T05:54:42;2.80;99.90
17740;DHT22;8990;33.226;-97.150;2023-02-18T05:57:13;2.60;99.90
17740;DHT22;8990;33.226;-97.150;2023-02-18T05:59:44;2.70;99.90
17740;DHT22;8990;33.226;-97.150;2023-02-18T06:02:14;2.40;99.90
17740;DHT22;8990;33.226;-97.150;2023-02-18T06:04:44;2.40;99.90
17740;DHT22;8990;33.226;-97.150;2023-02-18T06:07:13;2.50;99.90
17740;DHT22;8990;33.226;-97.150;2023-02-18T06:09:42;2.30;99.90
17740;DHT22;8990;33.226;-97.150;2023-02-18T06:12:12;2.20;99.90
17740;DHT22;8990;33.226;-97.150;2023-02-18T06:14:40;2.20;99.90
17740;DHT22;8990;33.226;-97.150;2023-02-18T06:17:12;2.20;99.90
17740;DHT22;8990;33.226;-97.150;2023-02-18T06:19:42;2.30;99.90
17740;DHT22;8990;33.226;-97.150;2023-02-18T06:22:11;2.40;99.90
17740;DHT22;8990;33.226;-97.150;2023-02-18T06:24:41;2.50;99.90
17740;DHT22;8990;33.226;-97.150;2023-02-18T06:27:12;2.60;99.90
17740;DHT22;8990;33.226;-97.150;2023-02-18T06:29:41;2.30;99.90
17740;DHT22;8990;33.226;-97.150;2023-02-18T06:32:11;2.60;99.90
17740;DHT22;8990;33.226;-97.150;2023-02-18T06:34:42;2.70;99.90
17740;DHT22;8990;33.226;-97.150;2023-02-18T06:37:13;2.60;99.90
17740;DHT22;8990;33.226;-97.150;2023-02-18T06:39:43;2.40;99.90
17740;DHT22;8990;33.226;-97.150;2023-02-18T06:42:14;2.60;99.90
17740;DHT22;8990;33.226;-97.150;2023-02-18T06:44:43;2.50;99.90
17740;DHT22;8990;33.226;-97.150;2023-02-18T06:47:15;2.40;99.90
17740;DHT22;8990;33.226;-97.150;2023-02-18T06:49:45;2.40;99.90
17740;DHT22;8990;33.226;-97.150;2023-02-18T06:52:14;2.70;99.90
17740;DHT22;8990;33.226;-97.150;2023-02-18T06:54:43;2.70;99.90
17740;DHT22;8990;33.226;-97.150;2023-02-18T06:57:14;2.40;99.90
17740;DHT22;8990;33.226;-97.150;2023-02-18T06:59:44;2.70;99.90
17740;DHT22;8990;33.226;-97.150;2023-02-18T07:02:15;2.40;99.90
17740;DHT22;8990;33.226;-97.150;2023-02-18T07:04:44;2.40;99.90
17740;DHT22;8990;33.226;-97.150;2023-02-18T07:07:14;2.60;99.90
17740;DHT22;8990;33.226;-97.150;2023-02-18T07:09:44;2.40;99.90
17740;DHT22;8990;33.226;-97.150;2023-02-18T07:12:13;2.50;99.90
17740;DHT22;8990;33.226;-97.150;2023-02-18T07:14:42;2.50;99.90
17740;DHT22;8990;33.226;-97.150;2023-02-18T07:17:14;2.70;99.90
17740;DHT22;8990;33.226;-97.150;2023-02-18T07:19:43;2.40;99.90
17740;DHT22;8990;33.226;-97.150;2023-02-18T07:22:16;2.30;99.90
17740;DHT22;8990;33.226;-97.150;2023-02-18T07:24:45;2.40;99.90
17740;DHT22;8990;33.226;-97.150;2023-02-18T07:27:20;2.60;99.90
17740;DHT22;8990;33.226;-97.150;2023-02-18T07:29:51;2.30;99.90
17740;DHT22;8990;33.226;-97.150;2023-02-18T07:32:21;2.40;99.90
17740;DHT22;8990;33.226;-97.150;2023-02-18T07:34:51;2.50;99.90
17740;DHT22;8990;33.226;-97.150;2023-02-18T07:37:20;2.70;99.90
17740;DHT22;8990;33.226;-97.150;2023-02-18T07:39:50;2.60;99.90
17740;DHT22;8990;33.226;-97.150;2023-02-18T07:42:19;2.60;99.90
17740;DHT22;8990;33.226;-97.150;2023-02-18T07:44:49;2.70;99.90
17740;DHT22;8990;33.226;-97.150;2023-02-18T07:47:21;2.30;99.90
17740;DHT22;8990;33.226;-97.150;2023-02-18T07:49:50;2.20;99.90
17740;DHT22;8990;33.226;-97.150;2023-02-18T07:52:19;2.60;99.90
17740;DHT22;8990;33.226;-97.150;2023-02-18T07:54:49;2.30;99.90
17740;DHT22;8990;33.226;-97.150;2023-02-18T07:57:17;2.20;99.90
17740;DHT22;8990;33.226;-97.150;2023-02-18T07:59:47;2.40;99.90
17740;DHT22;8990;33.226;-97.150;2023-02-18T08:02:18;2.00;99.90
17740;DHT22;8990;33.226;-97.150;2023-02-18T08:04:49;2.20;99.90
17740;DHT22;8990;33.226;-97.150;2023-02-18T08:07:19;2.20;99.90
17740;DHT22;8990;33.226;-97.150;2023-02-18T08:09:50;1.90;99.90
17740;DHT22;8990;33.226;-97.150;2023-02-18T08:12:19;1.90;99.90
17740;DHT22;8990;33.226;-97.150;2023-02-18T08:14:48;2.10;99.90
17740;DHT22;8990;33.226;-97.150;2023-02-18T08:17:19;1.80;99.90
17740;DHT22;8990;33.226;-97.150;2023-02-18T08:19:49;1.80;99.90
17740;DHT22;8990;33.226;-97.150;2023-02-18T08:22:18;2.00;99.90
17740;DHT22;8990;33.226;-97.150;2023-02-18T08:24:48;2.00;99.90
17740;DHT22;8990;33.226;-97.150;2023-02-18T08:27:17;1.60;99.90
17740;DHT22;8990;33.226;-97.150;2023-02-18T08:29:47;1.60;99.90
17740;DHT22;8990;33.226;-97.150;2023-02-18T08:32:17;1.50;99.90
17740;DHT22;8990;33.226;-97.150;2023-02-18T08:34:47;1.60;99.90
17740;DHT22;8990;33.226;-97.150;2023-02-18T08:37:18;1.50;99.90
17740;DHT22;8990;33.226;-97.150;2023-02-18T08:39:48;1.50;99.90
17740;DHT22;8990;33.226;-97.150;2023-02-18T08:42:17;1.60;99.90
17740;DHT22;8990;33.226;-97.150;2023-02-18T08:44:46;1.60;99.90
17740;DHT22;8990;33.226;-97.150;2023-02-18T08:47:16;1.80;99.90
17740;DHT22;8990;33.226;-97.150;2023-02-18T08:49:45;1.80;99.90
17740;DHT22;8990;33.226;-97.150;2023-02-18T08:52:16;1.80;99.90
17740;DHT22;8990;33.226;-97.150;2023-02-18T08:54:47;1.90;99.90
17740;DHT22;8990;33.226;-97.150;2023-02-18T08:57:17;1.70;99.90
17740;DHT22;8990;33.226;-97.150;2023-02-18T08:59:47;1.70;99.90
17740;DHT22;8990;33.226;-97.150;2023-02-18T09:02:16;1.70;99.90
17740;DHT22;8990;33.226;-97.150;2023-02-18T09:04:45;2.00;99.90
17740;DHT22;8990;33.226;-97.150;2023-02-18T09:07:17;2.00;99.90
17740;DHT22;8990;33.226;-97.150;2023-02-18T09:09:46;1.70;99.90
17740;DHT22;8990;33.226;-97.150;2023-02-18T09:12:16;2.10;99.90
17740;DHT22;8990;33.226;-97.150;2023-02-18T09:14:47;1.80;99.90
17740;DHT22;8990;33.226;-97.150;2023-02-18T09:17:17;1.70;99.90
17740;DHT22;8990;33.226;-97.150;2023-02-18T09:19:46;1.80;99.90
17740;DHT22;8990;33.226;-97.150;2023-02-18T09:22:18;1.90;99.90
17740;DHT22;8990;33.226;-97.150;2023-02-18T09:24:48;1.90;99.90
17740;DHT22;8990;33.226;-97.150;2023-02-18T09:27:17;2.00;99.90
17740;DHT22;8990;33.226;-97.150;2023-02-18T09:29:48;1.80;99.90
17740;DHT22;8990;33.226;-97.150;2023-02-18T09:32:17;1.90;99.90
17740;DHT22;8990;33.226;-97.150;2023-02-18T09:34:46;2.00;99.90
17740;DHT22;8990;33.226;-97.150;2023-02-18T09:37:17;1.90;99.90
17740;DHT22;8990;33.226;-97.150;2023-02-18T09:39:47;1.80;99.90
17740;DHT22;8990;33.226;-97.150;2023-02-18T09:42:26;2.10;99.90
17740;DHT22;8990;33.226;-97.150;2023-02-18T09:45:00;2.00;99.90
17740;DHT22;8990;33.226;-97.150;2023-02-18T09:47:34;2.10;99.90
17740;DHT22;8990;33.226;-97.150;2023-02-18T09:50:10;2.00;99.90
17740;DHT22;8990;33.226;-97.150;2023-02-18T09:52:44;2.20;99.90
17740;DHT22;8990;33.226;-97.150;2023-02-18T09:55:23;2.60;99.90
17740;DHT22;8990;33.226;-97.150;2023-02-18T09:57:54;2.50;99.90
17740;DHT22;8990;33.226;-97.150;2023-02-18T10:00:29;2.60;99.90
17740;DHT22;8990;33.226;-97.150;2023-02-18T10:03:03;2.80;99.90
17740;DHT22;8990;33.226;-97.150;2023-02-18T10:05:34;2.60;99.90
17740;DHT22;8990;33.226;-97.150;2023-02-18T10:08:12;2.70;99.90
17740;DHT22;8990;33.226;-97.150;2023-02-18T10:10:46;3.10;99.90
17740;DHT22;8990;33.226;-97.150;2023-02-18T10:13:17;2.80;99.90
17740;DHT22;8990;33.226;-97.150;2023-02-18T10:15:49;3.10;99.90
17740;DHT22;8990;33.226;-97.150;2023-02-18T10:18:27;3.00;99.90
17740;DHT22;8990;33.226;-97.150;2023-02-18T10:21:02;3.10;99.90
17740;DHT22;8990;33.226;-97.150;2023-02-18T10:23:37;3.20;99.90
17740;DHT22;8990;33.226;-97.150;2023-02-18T10:26:11;3.20;99.90
17740;DHT22;8990;33.226;-97.150;2023-02-18T10:28:45;3.20;99.90
17740;DHT22;8990;33.226;-97.150;2023-02-18T10:31:17;3.30;99.90
17740;DHT22;8990;33.226;-97.150;2023-02-18T10:33:54;3.30;99.90
17740;DHT22;8990;33.226;-97.150;2023-02-18T10:36:30;3.30;99.90
17740;DHT22;8990;33.226;-97.150;2023-02-18T10:39:24;3.20;99.90
17740;DHT22;8990;33.226;-97.150;2023-02-18T10:42:09;3.20;99.90
17740;DHT22;8990;33.226;-97.150;2023-02-18T10:44:48;3.20;99.90
17740;DHT22;8990;33.226;-97.150;2023-02-18T10:47:32;3.10;99.90
17740;DHT22;8990;33.226;-97.150;2023-02-18T10:50:09;3.10;99.90
17740;DHT22;8990;33.226;-97.150;2023-02-18T10:52:41;3.00;99.90
17740;DHT22;8990;33.226;-97.150;2023-02-18T10:55:15;3.10;99.90
17740;DHT22;8990;33.226;-97.150;2023-02-18T10:57:49;3.00;99.90
17740;DHT22;8990;33.226;-97.150;2023-02-18T11:00:21;2.70;99.90
17740;DHT22;8990;33.226;-97.150;2023-02-18T11:03:15;2.70;99.90
17740;DHT22;8990;33.226;-97.150;2023-02-18T11:05:45;2.80;99.90
17740;DHT22;8990;33.226;-97.150;2023-02-18T11:08:17;2.50;99.90
17740;DHT22;8990;33.226;-97.150;2023-02-18T11:10:50;2.60;99.90
17740;DHT22;8990;33.226;-97.150;2023-02-18T11:13:25;2.40;99.90
17740;DHT22;8990;33.226;-97.150;2023-02-18T11:15:57;2.40;99.90
17740;DHT22;8990;33.226;-97.150;2023-02-18T11:18:33;2.50;99.90
17740;DHT22;8990;33.226;-97.150;2023-02-18T11:21:18;2.50;99.90
17740;DHT22;8990;33.226;-97.150;2023-02-18T11:23:49;2.60;99.90
17740;DHT22;8990;33.226;-97.150;2023-02-18T11:26:25;2.50;99.90
17740;DHT22;8990;33.226;-97.150;2023-02-18T11:28:59;2.30;99.90
17740;DHT22;8990;33.226;-97.150;2023-02-18T11:31:39;2.10;99.90
17740;DHT22;8990;33.226;-97.150;2023-02-18T11:34:15;2.20;99.90
17740;DHT22;8990;33.226;-97.150;2023-02-18T11:36:45;2.20;99.90
17740;DHT22;8990;33.226;-97.150;2023-02-18T11:39:19;1.90;99.90
17740;DHT22;8990;33.226;-97.150;2023-02-18T11:41:56;2.10;99.90
17740;DHT22;8990;33.226;-97.150;2023-02-18T11:44:28;2.00;99.90
17740;DHT22;8990;33.226;-97.150;2023-02-18T11:47:01;2.00;99.90
17740;DHT22;8990;33.226;-97.150;2023-02-18T11:49:31;2.00;99.90
17740;DHT22;8990;33.226;-97.150;2023-02-18T11:52:16;2.00;99.90
17740;DHT22;8990;33.226;-97.150;2023-02-18T11:54:59;2.00;99.90
17740;DHT22;8990;33.226;-97.150;2023-02-18T11:57:34;1.70;99.90
17740;DHT22;8990;33.226;-97.150;2023-02-18T12:00:16;1.60;99.90
17740;DHT22;8990;33.226;-97.150;2023-02-18T12:02:48;1.70;99.90
17740;DHT22;8990;33.226;-97.150;2023-02-18T12:05:21;1.80;99.90
17740;DHT22;8990;33.226;-97.150;2023-02-18T12:07:55;1.70;99.90
17740;DHT22;8990;33.226;-97.150;2023-02-18T12:10:31;1.40;99.90
17740;DHT22;8990;33.226;-97.150;2023-02-18T12:13:09;1.40;99.90
17740;DHT22;8990;33.226;-97.150;2023-02-18T12:15:49;1.40;99.90
17740;DHT22;8990;33.226;-97.150;2023-02-18T12:18:29;1.40;99.90
17740;DHT22;8990;33.226;-97.150;2023-02-18T12:21:29;1.50;99.90
17740;DHT22;8990;33.226;-97.150;2023-02-18T12:24:09;1.30;99.90
17740;DHT22;8990;33.226;-97.150;2023-02-18T12:26:48;1.30;99.90
17740;DHT22;8990;33.226;-97.150;2023-02-18T12:29:45;1.40;99.90
17740;DHT22;8990;33.226;-97.150;2023-02-18T12:32:34;1.60;99.90
17740;DHT22;8990;33.226;-97.150;2023-02-18T12:35:20;1.60;99.90
17740;DHT22;8990;33.226;-97.150;2023-02-18T12:38:13;1.70;99.90
17740;DHT22;8990;33.226;-97.150;2023-02-18T12:41:08;1.60;99.90
17740;DHT22;8990;33.226;-97.150;2023-02-18T12:43:49;1.60;99.90
17740;DHT22;8990;33.226;-97.150;2023-02-18T12:46:31;1.60;99.90
17740;DHT22;8990;33.226;-97.150;2023-02-18T12:49:24;1.80;99.90
17740;DHT22;8990;33.226;-97.150;2023-02-18T12:52:11;1.60;99.90
17740;DHT22;8990;33.226;-97.150;2023-02-18T12:54:56;1.50;99.90
17740;DHT22;8990;33.226;-97.150;2023-02-18T12:57:40;1.60;99.90
17740;DHT22;8990;33.226;-97.150;2023-02-18T13:00:32;1.50;99.90
17740;DHT22;8990;33.226;-97.150;2023-02-18T13:06:18;1.70;99.90
17740;DHT22;8990;33.226;-97.150;2023-02-18T13:08:58;1.70;99.90
17740;DHT22;8990;33.226;-97.150;2023-02-18T13:11:37;1.70;99.90
17740;DHT22;8990;33.226;-97.150;2023-02-18T13:14:13;1.70;99.90
17740;DHT22;8990;33.226;-97.150;2023-02-18T13:16:47;1.80;99.90
17740;DHT22;8990;33.226;-97.150;2023-02-18T13:19:20;2.00;99.90
17740;DHT22;8990;33.226;-97.150;2023-02-18T13:21:57;2.20;99.90
17740;DHT22;8990;33.226;-97.150;2023-02-18T13:24:32;2.00;99.90
17740;DHT22;8990;33.226;-97.150;2023-02-18T13:27:13;2.20;99.90
17740;DHT22;8990;33.226;-97.150;2023-02-18T13:29:50;2.20;99.90
17740;DHT22;8990;33.226;-97.150;2023-02-18T13:32:27;2.20;99.90
17740;DHT22;8990;33.226;-97.150;2023-02-18T13:35:04;2.40;99.90
17740;DHT22;8990;33.226;-97.150;2023-02-18T13:37:45;2.50;99.90
17740;DHT22;8990;33.226;-97.150;2023-02-18T13:40:21;2.60;99.90
17740;DHT22;8990;33.226;-97.150;2023-02-18T13:42:51;2.50;99.90
17740;DHT22;8990;33.226;-97.150;2023-02-18T13:45:27;2.70;99.90
17740;DHT22;8990;33.226;-97.150;2023-02-18T13:47:57;2.60;99.90
17740;DHT22;8990;33.226;-97.150;2023-02-18T13:50:30;2.80;99.90
17740;DHT22;8990;33.226;-97.150;2023-02-18T13:53:18;2.70;99.90
17740;DHT22;8990;33.226;-97.150;2023-02-18T13:55:59;3.00;99.90
17740;DHT22;8990;33.226;-97.150;2023-02-18T13:58:36;3.30;99.90
17740;DHT22;8990;33.226;-97.150;2023-02-18T14:01:14;3.20;99.90
17740;DHT22;8990;33.226;-97.150;2023-02-18T14:04:01;3.40;99.90
17740;DHT22;8990;33.226;-97.150;2023-02-18T14:06:33;3.60;99.90
17740;DHT22;8990;33.226;-97.150;2023-02-18T14:12:27;3.80;99.90
17740;DHT22;8990;33.226;-97.150;2023-02-18T14:18:29;4.20;99.90
17740;DHT22;8990;33.226;-97.150;2023-02-18T14:21:17;4.20;99.90
17740;DHT22;8990;33.226;-97.150;2023-02-18T14:23:59;4.20;99.90
17740;DHT22;8990;33.226;-97.150;2023-02-18T14:26:31;4.10;99.90
17740;DHT22;8990;33.226;-97.150;2023-02-18T14:29:07;4.10;99.90
17740;DHT22;8990;33.226;-97.150;2023-02-18T14:31:51;4.00;99.90
17740;DHT22;8990;33.226;-97.150;2023-02-18T14:34:42;4.10;99.90
17740;DHT22;8990;33.226;-97.150;2023-02-18T14:37:39;4.20;99.90
17740;DHT22;8990;33.226;-97.150;2023-02-18T14:46:24;4.70;99.90
17740;DHT22;8990;33.226;-97.150;2023-02-18T14:49:09;4.80;99.90
17740;DHT22;8990;33.226;-97.150;2023-02-18T14:51:43;5.10;99.90
17740;DHT22;8990;33.226;-97.150;2023-02-18T14:54:17;5.20;99.90
17740;DHT22;8990;33.226;-97.150;2023-02-18T14:56:55;5.30;99.90
17740;DHT22;8990;33.226;-97.150;2023-02-18T14:59:27;5.50;99.90
17740;DHT22;8990;33.226;-97.150;2023-02-18T15:01:59;5.60;99.90
17740;DHT22;8990;33.226;-97.150;2023-02-18T15:04:29;5.70;99.90
17740;DHT22;8990;33.226;-97.150;2023-02-18T15:07:01;5.80;99.90
17740;DHT22;8990;33.226;-97.150;2023-02-18T15:09:32;5.90;99.90
17740;DHT22;8990;33.226;-97.150;2023-02-18T15:12:03;6.10;99.90
17740;DHT22;8990;33.226;-97.150;2023-02-18T15:14:36;6.20;99.90
17740;DHT22;8990;33.226;-97.150;2023-02-18T15:17:13;6.40;99.90
17740;DHT22;8990;33.226;-97.150;2023-02-18T15:19:46;6.60;99.90
17740;DHT22;8990;33.226;-97.150;2023-02-18T15:22:20;6.70;99.90
17740;DHT22;8990;33.226;-97.150;2023-02-18T15:24:50;6.80;99.90
17740;DHT22;8990;33.226;-97.150;2023-02-18T15:27:22;7.00;99.90
17740;DHT22;8990;33.226;-97.150;2023-02-18T15:29:57;7.20;99.90
17740;DHT22;8990;33.226;-97.150;2023-02-18T15:32:30;7.30;99.90
17740;DHT22;8990;33.226;-97.150;2023-02-18T15:35:01;7.40;99.90
17740;DHT22;8990;33.226;-97.150;2023-02-18T15:37:31;7.50;99.90
17740;DHT22;8990;33.226;-97.150;2023-02-18T15:40:02;7.60;99.90
17740;DHT22;8990;33.226;-97.150;2023-02-18T15:42:33;7.70;99.90
17740;DHT22;8990;33.226;-97.150;2023-02-18T15:45:12;7.80;99.90
17740;DHT22;8990;33.226;-97.150;2023-02-18T15:47:47;7.90;99.90
17740;DHT22;8990;33.226;-97.150;2023-02-18T15:50:18;8.00;99.90
17740;DHT22;8990;33.226;-97.150;2023-02-18T15:52:49;8.10;99.90
17740;DHT22;8990;33.226;-97.150;2023-02-18T15:55:25;8.20;99.90
17740;DHT22;8990;33.226;-97.150;2023-02-18T15:57:55;8.20;99.90
17740;DHT22;8990;33.226;-97.150;2023-02-18T16:00:27;8.20;99.90
17740;DHT22;8990;33.226;-97.150;2023-02-18T16:03:08;8.20;99.90
17740;DHT22;8990;33.226;-97.150;2023-02-18T16:05:41;8.20;99.90
17740;DHT22;8990;33.226;-97.150;2023-02-18T16:08:15;8.30;99.90
17740;DHT22;8990;33.226;-97.150;2023-02-18T16:10:47;8.30;99.90
17740;DHT22;8990;33.226;-97.150;2023-02-18T16:13:18;8.40;99.90
17740;DHT22;8990;33.226;-97.150;2023-02-18T16:15:48;8.30;99.90
17740;DHT22;8990;33.226;-97.150;2023-02-18T16:18:27;8.40;99.90
17740;DHT22;8990;33.226;-97.150;2023-02-18T16:21:01;8.40;99.90
17740;DHT22;8990;33.226;-97.150;2023-02-18T16:23:39;8.40;99.90
17740;DHT22;8990;33.226;-97.150;2023-02-18T16:26:22;8.50;99.90
17740;DHT22;8990;33.226;-97.150;2023-02-18T16:28:52;8.60;99.90
17740;DHT22;8990;33.226;-97.150;2023-02-18T16:31:22;8.80;99.90